Itaborai, Brazil
Current Conditions -  °F | °C
As of 7:00 PM on Wednesday 26 Nov 2014 (Local Time) from SBRJ Reporting Station
Broken Clouds Broken Clouds  
Wind Chill: 77°   Ceiling: 1800
Heat Index: 78°   Visibility: 5mi
Dew Point: 73°   Wind: 5mph
Humidity: 89%   Direction: 80°E
Pressure: 29.71"   Gusts: NA
Location:  22.75°S, 42.87°W
Report Text: SBRJ 262100Z 08004KT 8000 BKN018 FEW030TCU BKN100 25/23 Q1006
Loading
Personal Weather Stations






























Interactive Weather Map New forecast layout! Learn more

10-Day Weather Forecast

Advertisements
Track Severe Weather on mobile